sensor_id;sensor_type;location;lat;lon;timestamp;pressure;altitude;pressure_sealevel;temperature;humidity
45253;BME280;63171;50.520;30.486;2023-02-14T00:00:13;100294.41;;;3.35;100.00
45253;BME280;63171;50.520;30.486;2023-02-14T00:01:07;100300.28;;;3.40;100.00
45253;BME280;63171;50.520;30.486;2023-02-14T00:01:58;100307.94;;;3.44;100.00
45253;BME280;63171;50.520;30.486;2023-02-14T00:02:49;100294.06;;;3.47;100.00
45253;BME280;63171;50.520;30.486;2023-02-14T00:03:40;100306.16;;;3.46;100.00
45253;BME280;63171;50.520;30.486;2023-02-14T00:04:30;100308.72;;;3.48;100.00
45253;BME280;63171;50.520;30.486;2023-02-14T00:05:21;100307.88;;;3.46;100.00
45253;BME280;63171;50.520;30.486;2023-02-14T00:06:12;100309.56;;;3.48;100.00
45253;BME280;63171;50.520;30.486;2023-02-14T00:07:04;100305.34;;;3.44;100.00
45253;BME280;63171;50.520;30.486;2023-02-14T00:07:53;100301.19;;;3.39;100.00
45253;BME280;63171;50.520;30.486;2023-02-14T00:08:44;100301.31;;;3.34;100.00
45253;BME280;63171;50.520;30.486;2023-02-14T00:09:34;100292.72;;;3.32;100.00
45253;BME280;63171;50.520;30.486;2023-02-14T00:10:24;100295.31;;;3.32;100.00
45253;BME280;63171;50.520;30.486;2023-02-14T00:11:14;100293.59;;;3.31;100.00
45253;BME280;63171;50.520;30.486;2023-02-14T00:12:05;100297.13;;;3.29;100.00
45253;BME280;63171;50.520;30.486;2023-02-14T00:12:55;100295.47;;;3.26;100.00
45253;BME280;63171;50.520;30.486;2023-02-14T00:13:46;100291.19;;;3.25;100.00
45253;BME280;63171;50.520;30.486;2023-02-14T00:14:50;100290.31;;;3.26;100.00
45253;BME280;63171;50.520;30.486;2023-02-14T00:15:59;100281.81;;;3.21;100.00
45253;BME280;63171;50.520;30.486;2023-02-14T00:16:49;100283.56;;;3.19;100.00
45253;BME280;63171;50.520;30.486;2023-02-14T00:17:39;100290.44;;;3.20;100.00
45253;BME280;63171;50.520;30.486;2023-02-14T00:18:30;100292.97;;;3.23;100.00
45253;BME280;63171;50.520;30.486;2023-02-14T00:19:35;100290.34;;;3.24;100.00
45253;BME280;63171;50.520;30.486;2023-02-14T00:20:26;100285.16;;;3.24;100.00
45253;BME280;63171;50.520;30.486;2023-02-14T00:21:16;100299.75;;;3.27;100.00
45253;BME280;63171;50.520;30.486;2023-02-14T00:22:07;100299.75;;;3.27;100.00
45253;BME280;63171;50.520;30.486;2023-02-14T00:22:56;100293.72;;;3.26;100.00
45253;BME280;63171;50.520;30.486;2023-02-14T00:23:49;100300.53;;;3.31;100.00
45253;BME280;63171;50.520;30.486;2023-02-14T00:24:39;100288.56;;;3.26;100.00
45253;BME280;63171;50.520;30.486;2023-02-14T00:25:29;100291.19;;;3.25;100.00
45253;BME280;63171;50.520;30.486;2023-02-14T00:26:19;100290.34;;;3.24;100.00
45253;BME280;63171;50.520;30.486;2023-02-14T00:27:10;100286.78;;;3.29;100.00
45253;BME280;63171;50.520;30.486;2023-02-14T00:28:00;100284.94;;;3.32;100.00
45253;BME280;63171;50.520;30.486;2023-02-14T00:28:51;100280.66;;;3.31;100.00
45253;BME280;63171;50.520;30.486;2023-02-14T00:29:40;100285.88;;;3.30;100.00
45253;BME280;63171;50.520;30.486;2023-02-14T00:30:31;100278.88;;;3.35;100.00
45253;BME280;63171;50.520;30.486;2023-02-14T00:31:23;100277.28;;;3.29;100.00
45253;BME280;63171;50.520;30.486;2023-02-14T00:32:14;100277.09;;;3.37;100.00
45253;BME280;63171;50.520;30.486;2023-02-14T00:33:04;100288.06;;;3.45;100.00
45253;BME280;63171;50.520;30.486;2023-02-14T00:33:55;100276.75;;;3.49;100.00
45253;BME280;63171;50.520;30.486;2023-02-14T00:34:46;100277.72;;;3.45;100.00
45253;BME280;63171;50.520;30.486;2023-02-14T00:35:36;100269.31;;;3.37;100.00
45253;BME280;63171;50.520;30.486;2023-02-14T00:36:26;100254.72;;;3.33;100.00
45253;BME280;63171;50.520;30.486;2023-02-14T00:37:16;100263.25;;;3.38;100.00
45253;BME280;63171;50.520;30.486;2023-02-14T00:38:08;100255.41;;;3.41;100.00
45253;BME280;63171;50.520;30.486;2023-02-14T00:38:57;100269.13;;;3.43;100.00
45253;BME280;63171;50.520;30.486;2023-02-14T00:39:48;100259.59;;;3.45;100.00
45253;BME280;63171;50.520;30.486;2023-02-14T00:40:38;100266.47;;;3.46;100.00
45253;BME280;63171;50.520;30.486;2023-02-14T00:41:29;100268.16;;;3.47;100.00
45253;BME280;63171;50.520;30.486;2023-02-14T00:42:19;100270.78;;;3.45;100.00
45253;BME280;63171;50.520;30.486;2023-02-14T00:43:10;100270.75;;;3.47;100.00
45253;BME280;63171;50.520;30.486;2023-02-14T00:43:59;100268.34;;;3.41;100.00
45253;BME280;63171;50.520;30.486;2023-02-14T00:44:50;100276.09;;;3.41;100.00
45253;BME280;63171;50.520;30.486;2023-02-14T00:45:40;100271.09;;;3.35;100.00
45253;BME280;63171;50.520;30.486;2023-02-14T00:46:31;100269.22;;;3.40;100.00
45253;BME280;63171;50.520;30.486;2023-02-14T00:47:21;100267.44;;;3.42;100.00
45253;BME280;63171;50.520;30.486;2023-02-14T00:48:11;100271.81;;;3.40;100.00
45253;BME280;63171;50.520;30.486;2023-02-14T00:49:03;100270.25;;;3.33;100.00
45253;BME280;63171;50.520;30.486;2023-02-14T00:49:53;100271.09;;;3.35;100.00
45253;BME280;63171;50.520;30.486;2023-02-14T00:50:43;100252.97;;;3.35;100.00
45253;BME280;63171;50.520;30.486;2023-02-14T00:51:35;100263.25;;;3.38;100.00
45253;BME280;63171;50.520;30.486;2023-02-14T00:52:25;100254.44;;;3.43;100.00
45253;BME280;63171;50.520;30.486;2023-02-14T00:53:16;100255.41;;;3.41;100.00
45253;BME280;63171;50.520;30.486;2023-02-14T00:54:06;100264.75;;;3.45;100.00
45253;BME280;63171;50.520;30.486;2023-02-14T00:54:57;100265.44;;;3.53;100.00
45253;BME280;63171;50.520;30.486;2023-02-14T00:55:47;100266.44;;;3.47;100.00
45253;BME280;63171;50.520;30.486;2023-02-14T00:56:38;100271.50;;;3.52;100.00
45253;BME280;63171;50.520;30.486;2023-02-14T00:57:28;100277.44;;;3.55;100.00
45253;BME280;63171;50.520;30.486;2023-02-14T00:58:20;100278.19;;;3.59;100.00
45253;BME280;63171;50.520;30.486;2023-02-14T00:59:10;100279.88;;;3.62;100.00
45253;BME280;63171;50.520;30.486;2023-02-14T01:00:01;100281.72;;;3.56;100.00
45253;BME280;63171;50.520;30.486;2023-02-14T01:02:36;100272.50;;;3.46;100.00
45253;BME280;63171;50.520;30.486;2023-02-14T01:03:27;100277.63;;;3.49;100.00
45253;BME280;63171;50.520;30.486;2023-02-14T01:04:19;100276.63;;;3.53;100.00
45253;BME280;63171;50.520;30.486;2023-02-14T01:05:10;100272.16;;;3.59;100.00
45253;BME280;63171;50.520;30.486;2023-02-14T01:06:00;100269.53;;;3.60;100.00
45253;BME280;63171;50.520;30.486;2023-02-14T01:06:52;100271.22;;;3.63;100.00
45253;BME280;63171;50.520;30.486;2023-02-14T01:07:42;100268.63;;;3.63;100.00
45253;BME280;63171;50.520;30.486;2023-02-14T01:08:33;100266.09;;;3.60;100.00
45253;BME280;63171;50.520;30.486;2023-02-14T01:09:24;100260.16;;;3.56;100.00
45253;BME280;63171;50.520;30.486;2023-02-14T01:10:15;100261.09;;;3.53;100.00
45253;BME280;63171;50.520;30.486;2023-02-14T01:11:09;100255.97;;;3.52;100.00
45253;BME280;63171;50.520;30.486;2023-02-14T01:12:00;100257.84;;;3.45;100.00
45253;BME280;63171;50.520;30.486;2023-02-14T01:12:50;100252.75;;;3.42;100.00
45253;BME280;63171;50.520;30.486;2023-02-14T01:13:41;100246.59;;;3.48;100.00
45253;BME280;63171;50.520;30.486;2023-02-14T01:14:31;100250.72;;;3.53;100.00
45253;BME280;63171;50.520;30.486;2023-02-14T01:15:22;100248.28;;;3.49;100.00
45253;BME280;63171;50.520;30.486;2023-02-14T01:16:13;100252.56;;;3.50;100.00
45253;BME280;63171;50.520;30.486;2023-02-14T01:17:03;100260.38;;;3.48;100.00
45253;BME280;63171;50.520;30.486;2023-02-14T01:17:53;100257.81;;;3.47;100.00
45253;BME280;63171;50.520;30.486;2023-02-14T01:18:45;100253.50;;;3.47;100.00
45253;BME280;63171;50.520;30.486;2023-02-14T01:19:36;100250.16;;;3.42;100.00
45253;BME280;63171;50.520;30.486;2023-02-14T01:20:30;100244.16;;;3.42;100.00
45253;BME280;63171;50.520;30.486;2023-02-14T01:21:23;100254.31;;;3.49;100.00
45253;BME280;63171;50.520;30.486;2023-02-14T01:22:14;100238.69;;;3.52;100.00
45253;BME280;63171;50.520;30.486;2023-02-14T01:23:04;100250.88;;;3.49;100.00
45253;BME280;63171;50.520;30.486;2023-02-14T01:23:55;100240.50;;;3.49;100.00
45253;BME280;63171;50.520;30.486;2023-02-14T01:24:46;100242.13;;;3.53;100.00
45253;BME280;63171;50.520;30.486;2023-02-14T01:25:37;100237.59;;;3.61;100.00
45253;BME280;63171;50.520;30.486;2023-02-14T01:26:28;100234.81;;;3.67;100.00
45253;BME280;63171;50.520;30.486;2023-02-14T01:27:18;100234.81;;;3.67;100.00
45253;BME280;63171;50.520;30.486;2023-02-14T01:28:09;100228.94;;;3.62;100.00
45253;BME280;63171;50.520;30.486;2023-02-14T01:28:59;100215.22;;;3.57;100.00
45253;BME280;63171;50.520;30.486;2023-02-14T01:29:52;100222.06;;;3.60;100.00
45253;BME280;63171;50.520;30.486;2023-02-14T01:30:41;100212.34;;;3.68;100.00
45253;BME280;63171;50.520;30.486;2023-02-14T01:31:34;100219.09;;;3.73;100.00
45253;BME280;63171;50.520;30.486;2023-02-14T01:32:24;100217.97;;;3.82;100.00
45253;BME280;63171;50.520;30.486;2023-02-14T01:33:14;100218.69;;;3.87;100.00
45253;BME280;63171;50.520;30.486;2023-02-14T01:34:04;100223.03;;;3.86;100.00
45253;BME280;63171;50.520;30.486;2023-02-14T01:34:56;100212.91;;;3.79;100.00
45253;BME280;63171;50.520;30.486;2023-02-14T01:35:46;100214.00;;;3.70;100.00
45253;BME280;63171;50.520;30.486;2023-02-14T01:36:38;100233.06;;;3.68;100.00
45253;BME280;63171;50.520;30.486;2023-02-14T01:37:29;100222.13;;;3.58;100.00
45253;BME280;63171;50.520;30.486;2023-02-14T01:38:20;100219.41;;;3.63;100.00
45253;BME280;63171;50.520;30.486;2023-02-14T01:39:11;100222.56;;;3.72;100.00
45253;BME280;63171;50.520;30.486;2023-02-14T01:40:03;100213.19;;;3.68;100.00
45253;BME280;63171;50.520;30.486;2023-02-14T01:40:53;100214.00;;;3.70;100.00
45253;BME280;63171;50.520;30.486;2023-02-14T01:41:45;100207.16;;;3.68;100.00
45253;BME280;63171;50.520;30.486;2023-02-14T01:42:38;100202.84;;;3.68;100.00
45253;BME280;63171;50.520;30.486;2023-02-14T01:43:28;100201.16;;;3.67;100.00
45253;BME280;63171;50.520;30.486;2023-02-14T01:44:54;100202.78;;;3.70;100.00
45253;BME280;63171;50.520;30.486;2023-02-14T01:45:45;100202.88;;;3.67;100.00
45253;BME280;63171;50.520;30.486;2023-02-14T01:46:36;100197.72;;;3.67;100.00
45253;BME280;63171;50.520;30.486;2023-02-14T01:47:29;100200.69;;;3.53;100.00
45253;BME280;63171;50.520;30.486;2023-02-14T01:48:21;100198.25;;;3.47;100.00
45253;BME280;63171;50.520;30.486;2023-02-14T01:49:16;100192.97;;;3.51;100.00
45253;BME280;63171;50.520;30.486;2023-02-14T01:50:11;100186.91;;;3.52;100.00
45253;BME280;63171;50.520;30.486;2023-02-14T01:51:04;100192.97;;;3.51;100.00
45253;BME280;63171;50.520;30.486;2023-02-14T01:51:57;100178.94;;;3.59;100.00
45253;BME280;63171;50.520;30.486;2023-02-14T01:52:54;100177.94;;;3.64;100.00
45253;BME280;63171;50.520;30.486;2023-02-14T01:53:46;100189.19;;;3.63;100.00
45253;BME280;63171;50.520;30.486;2023-02-14T01:54:41;100193.56;;;3.60;100.00
45253;BME280;63171;50.520;30.486;2023-02-14T01:55:35;100201.41;;;3.58;100.00
45253;BME280;63171;50.520;30.486;2023-02-14T01:56:29;100181.53;;;3.59;100.00
45253;BME280;63171;50.520;30.486;2023-02-14T01:57:23;100175.38;;;3.63;100.00
45253;BME280;63171;50.520;30.486;2023-02-14T01:58:18;100170.25;;;3.61;100.00
45253;BME280;63171;50.520;30.486;2023-02-14T01:59:13;100173.81;;;3.57;100.00
45253;BME280;63171;50.520;30.486;2023-02-14T02:00:07;100167.06;;;3.51;100.00
45253;BME280;63171;50.520;30.486;2023-02-14T02:01:16;100169.81;;;3.45;100.00
45253;BME280;63171;50.520;30.486;2023-02-14T02:02:07;100169.06;;;3.42;100.00
45253;BME280;63171;50.520;30.486;2023-02-14T02:02:58;100165.47;;;3.47;100.00
45253;BME280;63171;50.520;30.486;2023-02-14T02:03:52;100159.59;;;3.41;100.00
45253;BME280;63171;50.520;30.486;2023-02-14T02:04:44;100167.06;;;3.51;100.00
45253;BME280;63171;50.520;30.486;2023-02-14T02:05:39;100159.22;;;3.54;100.00
45253;BME280;63171;50.520;30.486;2023-02-14T02:06:34;100166.97;;;3.54;100.00
45253;BME280;63171;50.520;30.486;2023-02-14T02:07:28;100166.19;;;3.52;100.00
45253;BME280;63171;50.520;30.486;2023-02-14T02:08:21;100171.41;;;3.51;100.00
45253;BME280;63171;50.520;30.486;2023-02-14T02:09:14;100171.41;;;3.51;100.00
45253;BME280;63171;50.520;30.486;2023-02-14T02:10:08;100163.63;;;3.51;100.00
45253;BME280;63171;50.520;30.486;2023-02-14T02:10:58;100158.56;;;3.46;100.00
45253;BME280;63171;50.520;30.486;2023-02-14T02:11:49;100156.81;;;3.47;100.00
45253;BME280;63171;50.520;30.486;2023-02-14T02:12:39;100164.69;;;3.44;100.00
45253;BME280;63171;50.520;30.486;2023-02-14T02:13:30;100172.53;;;3.41;100.00
45253;BME280;63171;50.520;30.486;2023-02-14T02:14:22;100167.28;;;3.44;100.00
45253;BME280;63171;50.520;30.486;2023-02-14T02:15:13;100161.34;;;3.40;100.00
45253;BME280;63171;50.520;30.486;2023-02-14T02:16:13;100158.56;;;3.48;100.00
45253;BME280;63171;50.520;30.486;2023-02-14T02:17:21;100158.56;;;3.48;100.00
45253;BME280;63171;50.520;30.486;2023-02-14T02:18:19;100162.94;;;3.44;100.00
45253;BME280;63171;50.520;30.486;2023-02-14T02:19:32;100167.13;;;3.50;100.00
45253;BME280;63171;50.520;30.486;2023-02-14T02:21:04;100164.53;;;3.50;100.00
45253;BME280;63171;50.520;30.486;2023-02-14T02:22:24;100163.28;;;3.63;100.00
45253;BME280;63171;50.520;30.486;2023-02-14T02:24:47;100168.13;;;3.74;100.00
45253;BME280;63171;50.520;30.486;2023-02-14T02:26:01;100157.97;;;3.68;100.00
45253;BME280;63171;50.520;30.486;2023-02-14T02:28:52;100146.44;;;3.48;100.00
45253;BME280;63171;50.520;30.486;2023-02-14T02:31:36;100157.38;;;3.58;100.00
45253;BME280;63171;50.520;30.486;2023-02-14T02:32:50;100150.84;;;3.45;100.00
45253;BME280;63171;50.520;30.486;2023-02-14T02:35:28;100150.06;;;3.43;100.00
45253;BME280;63171;50.520;30.486;2023-02-14T02:36:55;100143.38;;;3.36;100.00
45253;BME280;63171;50.520;30.486;2023-02-14T02:38:01;100144.31;;;3.32;100.00
45253;BME280;63171;50.520;30.486;2023-02-14T02:39:05;100150.28;;;3.35;100.00
45253;BME280;63171;50.520;30.486;2023-02-14T02:40:08;100158.91;;;3.36;100.00
45253;BME280;63171;50.520;30.486;2023-02-14T02:41:08;100152.88;;;3.35;100.00
45253;BME280;63171;50.520;30.486;2023-02-14T02:42:09;100148.59;;;3.34;100.00
45253;BME280;63171;50.520;30.486;2023-02-14T02:43:22;100146.00;;;3.34;100.00
45253;BME280;63171;50.520;30.486;2023-02-14T02:44:17;100138.34;;;3.30;100.00
45253;BME280;63171;50.520;30.486;2023-02-14T02:45:12;100144.25;;;3.35;100.00
45253;BME280;63171;50.520;30.486;2023-02-14T02:46:11;100150.28;;;3.35;100.00
45253;BME280;63171;50.520;30.486;2023-02-14T02:47:29;100150.22;;;3.37;100.00
45253;BME280;63171;50.520;30.486;2023-02-14T02:48:22;100148.53;;;3.36;100.00
45253;BME280;63171;50.520;30.486;2023-02-14T02:49:23;100154.47;;;3.39;100.00
45253;BME280;63171;50.520;30.486;2023-02-14T02:50:38;100144.25;;;3.35;100.00
45253;BME280;63171;50.520;30.486;2023-02-14T02:51:52;100154.63;;;3.33;100.00
45253;BME280;63171;50.520;30.486;2023-02-14T02:53:06;100170.16;;;3.35;100.00
45253;BME280;63171;50.520;30.486;2023-02-14T02:54:07;100170.06;;;3.38;100.00
45253;BME280;63171;50.520;30.486;2023-02-14T02:55:02;100163.97;;;3.39;100.00
45253;BME280;63171;50.520;30.486;2023-02-14T02:55:58;100159.75;;;3.36;100.00
45253;BME280;63171;50.520;30.486;2023-02-14T02:57:12;100165.03;;;3.32;100.00
45253;BME280;63171;50.520;30.486;2023-02-14T02:58:04;100171.09;;;3.31;100.00
45253;BME280;63171;50.520;30.486;2023-02-14T02:58:57;100173.72;;;3.29;100.00
45253;BME280;63171;50.520;30.486;2023-02-14T02:59:51;100177.06;;;3.34;100.00
45253;BME280;63171;50.520;30.486;2023-02-14T03:00:46;100177.94;;;3.33;100.00
45253;BME280;63171;50.520;30.486;2023-02-14T03:01:38;100184.84;;;3.33;100.00
45253;BME280;63171;50.520;30.486;2023-02-14T03:02:33;100178.91;;;3.29;100.00
45253;BME280;63171;50.520;30.486;2023-02-14T03:03:47;100194.34;;;3.32;100.00
45253;BME280;63171;50.520;30.486;2023-02-14T03:05:01;100191.84;;;3.29;100.00
45253;BME280;63171;50.520;30.486;2023-02-14T03:05:53;100202.16;;;3.31;100.00
45253;BME280;63171;50.520;30.486;2023-02-14T03:06:45;100207.34;;;3.31;100.00
45253;BME280;63171;50.520;30.486;2023-02-14T03:07:37;100196.97;;;3.31;100.00
45253;BME280;63171;50.520;30.486;2023-02-14T03:08:33;100205.56;;;3.33;100.00
45253;BME280;63171;50.520;30.486;2023-02-14T03:09:49;100199.34;;;3.40;100.00
45253;BME280;63171;50.520;30.486;2023-02-14T03:10:41;100206.91;;;3.47;100.00
45253;BME280;63171;50.520;30.486;2023-02-14T03:11:31;100211.19;;;3.47;100.00
45253;BME280;63171;50.520;30.486;2023-02-14T03:12:45;100204.50;;;3.40;100.00
45253;BME280;63171;50.520;30.486;2023-02-14T03:13:54;100204.66;;;3.35;100.00
45253;BME280;63171;50.520;30.486;2023-02-14T03:14:50;100206.38;;;3.35;100.00
45253;BME280;63171;50.520;30.486;2023-02-14T03:15:51;100211.56;;;3.35;100.00
45253;BME280;63171;50.520;30.486;2023-02-14T03:16:58;100214.94;;;3.37;100.00
45253;BME280;63171;50.520;30.486;2023-02-14T03:17:58;100214.06;;;3.38;100.00
45253;BME280;63171;50.520;30.486;2023-02-14T03:19:11;100215.75;;;3.39;100.00
45253;BME280;63171;50.520;30.486;2023-02-14T03:20:10;100207.28;;;3.32;100.00
45253;BME280;63171;50.520;30.486;2023-02-14T03:21:13;100202.22;;;3.29;100.00
45253;BME280;63171;50.520;30.486;2023-02-14T03:22:13;100198.84;;;3.25;100.00
45253;BME280;63171;50.520;30.486;2023-02-14T03:23:14;100215.28;;;3.24;100.00
45253;BME280;63171;50.520;30.486;2023-02-14T03:24:09;100198.06;;;3.23;100.00
45253;BME280;63171;50.520;30.486;2023-02-14T03:25:05;100210.25;;;3.18;100.00
45253;BME280;63171;50.520;30.486;2023-02-14T03:26:04;100217.22;;;3.16;100.00
45253;BME280;63171;50.520;30.486;2023-02-14T03:27:03;100205.16;;;3.15;100.00
45253;BME280;63171;50.520;30.486;2023-02-14T03:27:59;100212.94;;;3.15;100.00
45253;BME280;63171;50.520;30.486;2023-02-14T03:29:00;100223.38;;;3.12;100.00
45253;BME280;63171;50.520;30.486;2023-02-14T03:29:56;100222.66;;;3.07;100.00
45253;BME280;63171;50.520;30.486;2023-02-14T03:30:57;100223.50;;;3.06;100.00
45253;BME280;63171;50.520;30.486;2023-02-14T03:31:56;100235.59;;;3.07;100.00
45253;BME280;63171;50.520;30.486;2023-02-14T03:32:56;100225.25;;;3.06;100.00
45253;BME280;63171;50.520;30.486;2023-02-14T03:33:49;100233.09;;;3.03;100.00
45253;BME280;63171;50.520;30.486;2023-02-14T03:34:48;100236.56;;;3.02;100.00
45253;BME280;63171;50.520;30.486;2023-02-14T03:35:45;100224.47;;;3.02;100.00
45253;BME280;63171;50.520;30.486;2023-02-14T03:36:41;100229.63;;;3.04;100.00
45253;BME280;63171;50.520;30.486;2023-02-14T03:37:39;100223.72;;;2.99;100.00
45253;BME280;63171;50.520;30.486;2023-02-14T03:38:34;100227.16;;;2.99;100.00
45253;BME280;63171;50.520;30.486;2023-02-14T03:39:31;100234.97;;;2.97;100.00
45253;BME280;63171;50.520;30.486;2023-02-14T03:40:31;100222.03;;;2.97;100.00
45253;BME280;63171;50.520;30.486;2023-02-14T03:41:25;100221.34;;;2.89;100.00
45253;BME280;63171;50.520;30.486;2023-02-14T03:42:20;100219.63;;;2.90;100.00
45253;BME280;63171;50.520;30.486;2023-02-14T03:43:15;100229.97;;;2.90;100.00
45253;BME280;63171;50.520;30.486;2023-02-14T03:44:09;100233.41;;;2.90;100.00
45253;BME280;63171;50.520;30.486;2023-02-14T03:45:01;100224.78;;;2.90;100.00
45253;BME280;63171;50.520;30.486;2023-02-14T03:45:57;100228.28;;;2.89;100.00
45253;BME280;63171;50.520;30.486;2023-02-14T03:46:54;100232.56;;;2.90;100.00
45253;BME280;63171;50.520;30.486;2023-02-14T03:47:47;100223.19;;;2.86;100.00
45253;BME280;63171;50.520;30.486;2023-02-14T03:48:41;100230.97;;;2.84;100.00
45253;BME280;63171;50.520;30.486;2023-02-14T03:49:35;100233.53;;;2.86;100.00
45253;BME280;63171;50.520;30.486;2023-02-14T03:50:30;100230.22;;;2.81;100.00
45253;BME280;63171;50.520;30.486;2023-02-14T03:51:22;100227.53;;;2.84;100.00
45253;BME280;63171;50.520;30.486;2023-02-14T03:52:17;100234.41;;;2.85;100.00
45253;BME280;63171;50.520;30.486;2023-02-14T03:53:10;100234.50;;;2.82;100.00
45253;BME280;63171;50.520;30.486;2023-02-14T03:54:05;100238.84;;;2.80;100.00
45253;BME280;63171;50.520;30.486;2023-02-14T03:54:56;100235.53;;;2.75;100.00
45253;BME280;63171;50.520;30.486;2023-02-14T03:55:53;100221.78;;;2.73;100.00
45253;BME280;63171;50.520;30.486;2023-02-14T03:56:45;100228.72;;;2.71;100.00
45253;BME280;63171;50.520;30.486;2023-02-14T03:57:42;100223.56;;;2.71;100.00
45253;BME280;63171;50.520;30.486;2023-02-14T03:58:38;100235.53;;;2.75;100.00
45253;BME280;63171;50.520;30.486;2023-02-14T03:59:29;100217.50;;;2.72;100.00
45253;BME280;63171;50.520;30.486;2023-02-14T04:00:19;100214.84;;;2.75;100.00
45253;BME280;63171;50.520;30.486;2023-02-14T04:01:13;100216.44;;;2.79;100.00
45253;BME280;63171;50.520;30.486;2023-02-14T04:02:06;100209.44;;;2.84;100.00
45253;BME280;63171;50.520;30.486;2023-02-14T04:03:01;100214.56;;;2.85;100.00
45253;BME280;63171;50.520;30.486;2023-02-14T04:03:54;100206.22;;;2.74;100.00
45253;BME280;63171;50.520;30.486;2023-02-14T04:04:48;100204.66;;;2.69;100.00
45253;BME280;63171;50.520;30.486;2023-02-14T04:05:39;100214.78;;;2.76;100.00
45253;BME280;63171;50.520;30.486;2023-02-14T04:06:35;100211.22;;;2.80;100.00
45253;BME280;63171;50.520;30.486;2023-02-14T04:07:26;100200.84;;;2.83;100.00
45253;BME280;63171;50.520;30.486;2023-02-14T04:08:19;100206.22;;;2.74;100.00
45253;BME280;63171;50.520;30.486;2023-02-14T04:09:10;100207.16;;;2.72;100.00
45253;BME280;63171;50.520;30.486;2023-02-14T04:10:00;100201.22;;;2.66;100.00
45253;BME280;63171;50.520;30.486;2023-02-14T04:10:51;100215.75;;;2.72;100.00
45253;BME280;63171;50.520;30.486;2023-02-14T04:11:43;100212.31;;;2.72;100.00
45253;BME280;63171;50.520;30.486;2023-02-14T04:12:34;100213.09;;;2.75;100.00
45253;BME280;63171;50.520;30.486;2023-02-14T04:13:25;100204.44;;;2.76;100.00
45253;BME280;63171;50.520;30.486;2023-02-14T04:14:15;100213.00;;;2.78;100.00
45253;BME280;63171;50.520;30.486;2023-02-14T04:15:06;100212.13;;;2.81;100.00
45253;BME280;63171;50.520;30.486;2023-02-14T04:15:56;100201.06;;;2.74;100.00
45253;BME280;63171;50.520;30.486;2023-02-14T04:16:47;100203.72;;;2.71;100.00
45253;BME280;63171;50.520;30.486;2023-02-14T04:17:55;100210.75;;;2.64;100.00
45253;BME280;63171;50.520;30.486;2023-02-14T04:19:04;100215.91;;;2.66;100.00
45253;BME280;63171;50.520;30.486;2023-02-14T04:20:12;100209.03;;;2.65;100.00
45253;BME280;63171;50.520;30.486;2023-02-14T04:21:03;100217.63;;;2.65;100.00
45253;BME280;63171;50.520;30.486;2023-02-14T04:21:52;100215.88;;;2.67;100.00
45253;BME280;63171;50.520;30.486;2023-02-14T04:22:44;100215.00;;;2.69;100.00
45253;BME280;63171;50.520;30.486;2023-02-14T04:23:35;100216.72;;;2.68;100.00
45253;BME280;63171;50.520;30.486;2023-02-14T04:24:25;100221.97;;;2.65;100.00
45253;BME280;63171;50.520;30.486;2023-02-14T04:25:16;100219.38;;;2.65;100.00
45253;BME280;63171;50.520;30.486;2023-02-14T04:26:07;100222.75;;;2.69;100.00
45253;BME280;63171;50.520;30.486;2023-02-14T04:26:57;100224.59;;;2.63;100.00
45253;BME280;63171;50.520;30.486;2023-02-14T04:27:59;100232.28;;;2.65;100.00
45253;BME280;63171;50.520;30.486;2023-02-14T04:28:48;100226.19;;;2.69;100.00
45253;BME280;63171;50.520;30.486;2023-02-14T04:29:40;100238.28;;;2.69;100.00
45253;BME280;63171;50.520;30.486;2023-02-14T04:30:31;100238.28;;;2.67;100.00
45253;BME280;63171;50.520;30.486;2023-02-14T04:31:21;100243.44;;;2.69;100.00
45253;BME280;63171;50.520;30.486;2023-02-14T04:32:12;100240.00;;;2.66;100.00
45253;BME280;63171;50.520;30.486;2023-02-14T04:33:03;100252.09;;;2.67;100.00
45253;BME280;63171;50.520;30.486;2023-02-14T04:33:53;100238.22;;;2.70;100.00
45253;BME280;63171;50.520;30.486;2023-02-14T04:34:44;100244.34;;;2.66;100.00
45253;BME280;63171;50.520;30.486;2023-02-14T04:35:34;100240.06;;;2.65;100.00
45253;BME280;63171;50.520;30.486;2023-02-14T04:36:24;100240.00;;;2.66;100.00
45253;BME280;63171;50.520;30.486;2023-02-14T04:37:17;100240.00;;;2.66;100.00
45253;BME280;63171;50.520;30.486;2023-02-14T04:38:08;100241.88;;;2.61;100.00
45253;BME280;63171;50.520;30.486;2023-02-14T04:38:59;100238.41;;;2.62;100.00
45253;BME280;63171;50.520;30.486;2023-02-14T04:39:49;100243.56;;;2.62;100.00
45253;BME280;63171;50.520;30.486;2023-02-14T04:40:39;100252.94;;;2.68;100.00
45253;BME280;63171;50.520;30.486;2023-02-14T04:41:29;100256.38;;;2.67;100.00
45253;BME280;63171;50.520;30.486;2023-02-14T04:42:20;100255.53;;;2.66;100.00
45253;BME280;63171;50.520;30.486;2023-02-14T04:43:10;100261.56;;;2.67;100.00
45253;BME280;63171;50.520;30.486;2023-02-14T04:44:00;100255.41;;;2.73;100.00
45253;BME280;63171;50.520;30.486;2023-02-14T04:44:50;100264.69;;;2.80;100.00
45253;BME280;63171;50.520;30.486;2023-02-14T04:45:41;100263.97;;;2.75;100.00
45253;BME280;63171;50.520;30.486;2023-02-14T04:46:30;100257.19;;;2.71;100.00
45253;BME280;63171;50.520;30.486;2023-02-14T04:47:21;100252.72;;;2.76;100.00
45253;BME280;63171;50.520;30.486;2023-02-14T04:48:11;100257.94;;;2.74;100.00
45253;BME280;63171;50.520;30.486;2023-02-14T04:49:01;100264.78;;;2.77;100.00
45253;BME280;63171;50.520;30.486;2023-02-14T04:49:51;100275.94;;;2.79;100.00